Time;durP1;ratioP1;P1;durP2;ratioP2;P2;SDS_P1;SDS_P2;PMS_P1;PMS_P2;Temp;Humidity;BMP_temperature;BMP_pressure;BME280_temperature;BME280_humidity;BME280_pressure;Samples;Min_cycle;Max_cycle;Signal;HPM_P1;HPM_P2
2021/07/13 00:00:19;;;;;;;9.15;6.93;;;20.80;99.90;;;;;;5048192;28;20111;-83
2021/07/13 00:02:45;;;;;;;7.47;6.00;;;20.80;99.90;;;;;;5037808;23;20503;-84
2021/07/13 00:05:15;;;;;;;8.75;6.50;;;20.80;99.90;;;;;;4970221;28;20031;-84
2021/07/13 00:07:42;;;;;;;7.68;5.95;;;20.80;99.90;;;;;;4971341;28;20078;-84
2021/07/13 00:10:09;;;;;;;7.38;6.43;;;20.80;99.90;;;;;;4973143;28;20023;-83
2021/07/13 00:12:36;;;;;;;7.20;5.85;;;20.80;99.90;;;;;;4970352;28;20035;-84
2021/07/13 00:15:07;;;;;;;7.93;5.85;;;20.80;99.90;;;;;;4954287;29;20474;-84
2021/07/13 00:17:33;;;;;;;8.73;6.07;;;20.80;99.90;;;;;;4954358;28;20389;-83
2021/07/13 00:19:59;;;;;;;8.98;5.97;;;20.80;99.90;;;;;;4953492;28;20059;-84
2021/07/13 00:22:24;;;;;;;7.72;5.75;;;20.80;99.90;;;;;;4955266;28;20114;-84
2021/07/13 00:24:50;;;;;;;7.85;5.32;;;20.80;99.90;;;;;;4954148;29;20027;-84
2021/07/13 00:27:15;;;;;;;6.28;5.20;;;20.80;99.90;;;;;;4954058;28;20023;-84
2021/07/13 00:29:41;;;;;;;7.40;5.60;;;20.80;99.90;;;;;;4954837;28;20023;-84
2021/07/13 00:32:07;;;;;;;8.98;6.10;;;20.80;99.90;;;;;;4953794;28;20090;-84
2021/07/13 00:34:32;;;;;;;8.07;6.15;;;20.80;99.90;;;;;;4955277;28;20539;-84
2021/07/13 00:36:58;;;;;;;7.28;5.78;;;20.80;99.90;;;;;;4953754;29;20169;-84
2021/07/13 00:39:23;;;;;;;7.43;5.90;;;20.80;99.90;;;;;;4953403;29;20342;-84
2021/07/13 00:41:49;;;;;;;9.20;5.80;;;20.80;99.90;;;;;;4953736;28;20038;-84
2021/07/13 00:44:15;;;;;;;8.32;5.78;;;20.80;99.90;;;;;;4955235;28;20042;-84
2021/07/13 00:46:46;;;;;;;7.68;5.53;;;20.80;99.90;;;;;;4953948;28;20042;-83
2021/07/13 00:49:14;;;;;;;6.32;5.45;;;20.70;99.90;;;;;;4954650;28;20053;-84
2021/07/13 00:51:40;;;;;;;8.47;5.70;;;20.80;99.90;;;;;;4954910;28;20050;-83
2021/07/13 00:54:09;;;;;;;7.20;5.65;;;20.80;99.90;;;;;;4953683;28;20029;-83
2021/07/13 00:56:40;;;;;;;7.80;5.30;;;20.70;99.90;;;;;;4953475;28;20093;-84
2021/07/13 00:59:06;;;;;;;6.97;5.80;;;20.80;99.90;;;;;;4954408;28;20039;-83
2021/07/13 01:01:33;;;;;;;6.45;5.38;;;20.70;99.90;;;;;;4954516;28;20039;-84
2021/07/13 01:04:02;;;;;;;9.82;6.43;;;20.70;99.90;;;;;;4953517;29;20035;-84
2021/07/13 01:06:39;;;;;;;8.35;5.72;;;20.70;99.90;;;;;;4952958;28;20031;-84
2021/07/13 01:09:11;;;;;;;8.93;5.78;;;20.70;99.90;;;;;;4954183;28;20031;-84
2021/07/13 01:11:47;;;;;;;6.70;6.00;;;20.60;99.90;;;;;;4953141;29;20034;-84
2021/07/13 01:14:25;;;;;;;7.97;6.20;;;20.60;99.90;;;;;;4954598;28;20020;-83
2021/07/13 01:17:10;;;;;;;9.25;6.72;;;20.60;99.90;;;;;;4969150;28;20063;-86
2021/07/13 01:19:54;;;;;;;9.00;6.57;;;20.60;99.90;;;;;;4952186;28;20042;-85
2021/07/13 01:22:45;;;;;;;8.50;6.32;;;20.60;99.90;;;;;;4969084;28;20027;-83
2021/07/13 01:25:31;;;;;;;9.20;6.28;;;20.60;99.90;;;;;;4954214;28;20031;-84
2021/07/13 01:28:19;;;;;;;9.77;7.10;;;20.60;99.90;;;;;;4968931;28;20121;-83
2021/07/13 01:30:52;;;;;;;7.75;6.78;;;20.60;99.90;;;;;;4953666;29;20122;-83
2021/07/13 01:33:21;;;;;;;8.10;6.28;;;20.60;99.90;;;;;;4952603;29;20027;-84
2021/07/13 01:36:07;;;;;;;9.57;6.85;;;20.60;99.90;;;;;;4954267;28;20568;-84
2021/07/13 01:38:37;;;;;;;8.07;6.78;;;20.50;99.90;;;;;;4953790;28;20027;-84
2021/07/13 01:41:07;;;;;;;8.50;6.40;;;20.50;99.90;;;;;;4953741;28;20030;-83
2021/07/13 01:43:36;;;;;;;8.25;6.82;;;20.50;99.90;;;;;;4952674;28;20514;-83
2021/07/13 01:46:03;;;;;;;8.23;6.70;;;20.50;99.90;;;;;;4952610;29;20027;-84
2021/07/13 01:48:30;;;;;;;8.27;7.03;;;20.50;99.90;;;;;;4952383;28;20031;-83
2021/07/13 01:50:57;;;;;;;9.88;6.90;;;20.40;99.90;;;;;;4953586;28;20041;-83
2021/07/13 01:53:26;;;;;;;11.02;8.00;;;20.40;99.90;;;;;;4953462;28;20617;-84
2021/07/13 01:55:53;;;;;;;12.32;7.80;;;20.40;99.90;;;;;;4953856;28;20130;-83
2021/07/13 01:58:22;;;;;;;10.45;8.13;;;20.40;99.90;;;;;;4968510;28;20049;-84
2021/07/13 02:00:49;;;;;;;10.15;8.25;;;20.40;99.90;;;;;;4953339;28;20061;-84
2021/07/13 02:03:15;;;;;;;12.02;9.35;;;20.30;99.90;;;;;;4951918;28;20544;-83
2021/07/13 02:05:43;;;;;;;10.70;9.57;;;20.30;99.90;;;;;;4952245;29;20391;-82
2021/07/13 02:08:10;;;;;;;12.55;9.40;;;20.30;99.90;;;;;;4952971;28;20184;-84
2021/07/13 02:10:36;;;;;;;12.85;9.57;;;20.30;99.90;;;;;;4951443;28;20066;-84
2021/07/13 02:13:06;;;;;;;11.20;8.55;;;20.20;99.90;;;;;;4951764;28;20129;-84
2021/07/13 02:15:32;;;;;;;12.43;8.63;;;20.20;99.90;;;;;;4952292;29;20027;-84
2021/07/13 02:17:58;;;;;;;10.80;7.40;;;20.20;99.90;;;;;;4951854;28;20034;-84
2021/07/13 02:20:24;;;;;;;10.65;7.72;;;20.10;99.90;;;;;;4967721;28;20121;-84
2021/07/13 02:22:50;;;;;;;9.10;7.22;;;20.10;99.90;;;;;;4951568;28;20099;-84
2021/07/13 02:25:18;;;;;;;10.93;7.00;;;20.10;99.90;;;;;;4953337;28;20093;-83
2021/07/13 02:27:50;;;;;;;7.83;5.60;;;20.10;99.90;;;;;;4953282;28;20027;-83
2021/07/13 02:30:16;;;;;;;8.95;5.75;;;20.10;99.90;;;;;;4951240;28;20751;-84
2021/07/13 02:32:50;;;;;;;7.82;5.65;;;20.10;99.90;;;;;;4952640;28;20062;-84
2021/07/13 02:35:18;;;;;;;6.95;5.68;;;20.00;99.90;;;;;;4953316;29;20030;-84
2021/07/13 02:37:47;;;;;;;6.78;5.10;;;20.00;99.90;;;;;;4951935;28;20020;-83
2021/07/13 02:40:16;;;;;;;7.28;5.20;;;19.90;99.90;;;;;;4950268;29;20337;-84
2021/07/13 02:42:45;;;;;;;7.82;5.07;;;19.90;99.90;;;;;;4952905;28;20034;-84
2021/07/13 02:45:12;;;;;;;6.80;5.53;;;19.90;99.90;;;;;;4951873;29;20039;-84
2021/07/13 02:47:41;;;;;;;9.02;6.78;;;19.90;99.90;;;;;;4951726;28;20050;-84
2021/07/13 02:50:07;;;;;;;11.98;7.22;;;19.80;99.90;;;;;;4951503;29;20027;-83
2021/07/13 02:52:34;;;;;;;8.68;7.22;;;19.80;99.90;;;;;;4952827;28;20031;-84
2021/07/13 02:55:13;;;;;;;9.80;7.88;;;19.80;99.90;;;;;;4952772;29;20105;-84
2021/07/13 02:57:40;;;;;;;11.60;8.30;;;19.80;99.90;;;;;;4951582;29;20119;-83
2021/07/13 03:00:08;;;;;;;9.77;7.80;;;19.70;99.90;;;;;;4950839;28;20130;-83
2021/07/13 03:02:35;;;;;;;11.07;8.00;;;19.70;99.90;;;;;;4951007;29;20035;-83
2021/07/13 03:05:01;;;;;;;7.45;6.53;;;19.80;99.90;;;;;;4952997;28;20058;-83
2021/07/13 03:07:27;;;;;;;9.93;8.10;;;19.70;99.90;;;;;;4950655;28;20436;-83
2021/07/13 03:09:54;;;;;;;8.60;7.20;;;19.80;99.90;;;;;;4952018;28;20023;-84
2021/07/13 03:12:20;;;;;;;9.60;8.15;;;19.80;99.90;;;;;;4952305;28;20086;-84
2021/07/13 03:14:47;;;;;;;10.25;9.02;;;19.80;99.90;;;;;;4951087;28;20027;-84
2021/07/13 03:17:16;;;;;;;11.32;8.95;;;19.80;99.90;;;;;;4951050;28;20039;-84
2021/07/13 03:19:43;;;;;;;9.70;8.55;;;19.80;99.90;;;;;;4966716;28;20027;-84
2021/07/13 03:22:24;;;;;;;10.95;8.80;;;19.80;99.90;;;;;;4967153;28;20087;-84
2021/07/13 03:24:52;;;;;;;15.77;12.38;;;19.80;99.90;;;;;;4951237;29;20027;-84
2021/07/13 03:27:21;;;;;;;11.68;10.13;;;19.80;99.90;;;;;;4951071;29;20492;-83
2021/07/13 03:29:50;;;;;;;12.60;9.77;;;19.80;99.90;;;;;;4950622;28;20047;-87
2021/07/13 03:32:17;;;;;;;11.75;9.90;;;19.80;99.90;;;;;;4950639;28;20110;-86
2021/07/13 03:34:45;;;;;;;13.00;10.10;;;19.80;99.90;;;;;;4951245;28;20019;-86
2021/07/13 03:37:11;;;;;;;14.87;10.93;;;19.80;99.90;;;;;;4950891;29;20038;-84
2021/07/13 03:39:37;;;;;;;13.48;10.27;;;19.80;99.90;;;;;;4950558;28;20023;-85
2021/07/13 03:42:04;;;;;;;13.65;10.65;;;19.90;99.90;;;;;;4953393;28;20106;-83
2021/07/13 03:44:30;;;;;;;14.35;11.75;;;19.80;99.90;;;;;;4956853;28;20023;-83
2021/07/13 03:46:56;;;;;;;13.88;12.43;;;19.90;99.90;;;;;;4956489;28;20134;-84
2021/07/13 03:49:24;;;;;;;15.43;11.05;;;19.90;99.90;;;;;;4954283;29;20049;-85
2021/07/13 03:51:50;;;;;;;13.05;10.57;;;19.90;99.90;;;;;;4954692;28;20114;-85
2021/07/13 03:54:18;;;;;;;13.57;10.52;;;19.90;99.90;;;;;;4954929;28;20114;-86
2021/07/13 03:56:45;;;;;;;15.13;12.18;;;19.90;99.90;;;;;;4953436;29;20019;-85
2021/07/13 03:59:12;;;;;;;15.10;11.80;;;19.90;99.90;;;;;;4954049;28;20443;-84
2021/07/13 04:01:38;;;;;;;15.50;12.85;;;19.80;99.90;;;;;;4954099;29;20031;-85
2021/07/13 04:04:04;;;;;;;16.65;11.85;;;19.80;99.90;;;;;;4954513;29;20028;-84
2021/07/13 04:06:31;;;;;;;17.45;12.18;;;19.80;99.90;;;;;;4954203;29;20110;-84
2021/07/13 04:08:56;;;;;;;16.80;13.13;;;19.80;99.90;;;;;;4953681;28;20489;-85
2021/07/13 04:11:22;;;;;;;16.75;13.27;;;19.80;99.90;;;;;;4954227;28;20034;-84
2021/07/13 04:13:48;;;;;;;20.63;15.27;;;19.90;99.90;;;;;;4954273;28;20027;-84
2021/07/13 04:16:13;;;;;;;19.92;15.18;;;19.80;99.90;;;;;;4954485;29;20118;-84
2021/07/13 04:18:40;;;;;;;19.15;15.32;;;19.80;99.90;;;;;;4954368;28;20027;-85
2021/07/13 04:21:06;;;;;;;21.42;15.75;;;19.80;99.90;;;;;;4953673;28;20023;-85
2021/07/13 04:23:32;;;;;;;21.60;17.55;;;19.80;99.90;;;;;;4953877;28;20370;-85
2021/07/13 04:25:58;;;;;;;23.42;17.50;;;19.80;99.90;;;;;;4955583;28;20130;-84
2021/07/13 04:28:26;;;;;;;22.17;16.83;;;19.80;99.90;;;;;;4954115;29;20215;-84
2021/07/13 04:30:52;;;;;;;23.00;17.33;;;19.80;99.90;;;;;;4953800;28;20075;-84
2021/07/13 04:33:18;;;;;;;21.60;16.98;;;19.80;99.90;;;;;;4954444;29;20267;-83
2021/07/13 04:35:44;;;;;;;21.80;16.42;;;19.80;99.90;;;;;;4955028;28;20037;-82
2021/07/13 04:38:10;;;;;;;23.17;16.35;;;19.70;99.90;;;;;;4956843;28;20102;-84
2021/07/13 04:40:35;;;;;;;20.92;14.90;;;19.80;99.90;;;;;;4956038;28;20031;-81
2021/07/13 04:43:01;;;;;;;22.00;14.95;;;19.80;99.90;;;;;;4955621;28;20023;-81
2021/07/13 04:45:26;;;;;;;20.85;15.85;;;19.80;99.90;;;;;;4955102;29;20687;-81
2021/07/13 04:47:52;;;;;;;18.25;13.98;;;19.80;99.90;;;;;;4955570;29;20032;-81
2021/07/13 04:50:18;;;;;;;20.65;15.50;;;19.80;99.90;;;;;;4954959;29;20059;-81
2021/07/13 04:52:43;;;;;;;19.45;14.02;;;19.80;99.90;;;;;;4955602;29;20620;-81
2021/07/13 04:55:09;;;;;;;18.40;14.73;;;19.80;99.90;;;;;;4953143;28;20519;-81
2021/07/13 04:57:35;;;;;;;17.65;13.50;;;19.90;99.90;;;;;;4958555;28;20024;-81
2021/07/13 05:00:00;;;;;;;19.15;15.30;;;19.90;99.90;;;;;;4956415;29;20034;-82
2021/07/13 05:02:26;;;;;;;20.30;15.77;;;19.90;99.90;;;;;;4958120;28;20130;-82
2021/07/13 05:04:51;;;;;;;20.80;15.85;;;19.90;99.90;;;;;;4958999;28;20130;-82
2021/07/13 05:07:17;;;;;;;17.15;13.93;;;19.90;99.90;;;;;;4955404;29;20027;-82
2021/07/13 05:09:43;;;;;;;20.17;15.15;;;19.90;99.90;;;;;;4955253;28;20023;-82
2021/07/13 05:12:08;;;;;;;17.63;13.43;;;19.90;99.90;;;;;;4955983;29;20032;-82
2021/07/13 05:14:35;;;;;;;22.15;14.98;;;19.90;99.90;;;;;;4958659;28;20027;-82
2021/07/13 05:17:02;;;;;;;22.90;17.15;;;19.90;99.90;;;;;;4958463;28;20031;-82
2021/07/13 05:19:32;;;;;;;22.02;17.05;;;19.90;99.90;;;;;;4971437;28;20027;-84
2021/07/13 05:22:01;;;;;;;28.40;18.77;;;19.90;99.90;;;;;;4954371;29;20039;-83
2021/07/13 05:24:27;;;;;;;28.50;19.67;;;19.90;99.90;;;;;;4957335;28;20384;-83
2021/07/13 05:26:55;;;;;;;23.92;17.95;;;20.00;99.90;;;;;;4954790;29;20401;-83
2021/07/13 05:29:20;;;;;;;22.95;16.95;;;20.00;99.90;;;;;;4954505;29;20038;-83
2021/07/13 05:31:46;;;;;;;28.05;20.02;;;19.90;99.90;;;;;;4958041;28;20028;-82
2021/07/13 05:34:12;;;;;;;25.63;18.55;;;19.90;99.90;;;;;;4957693;29;20023;-84
2021/07/13 05:36:38;;;;;;;24.15;18.83;;;19.90;99.90;;;;;;4956965;28;20063;-84
2021/07/13 05:39:07;;;;;;;26.80;19.40;;;19.90;99.90;;;;;;4955905;29;20062;-84
2021/07/13 05:41:32;;;;;;;;;;;19.90;99.90;;;;;;4958078;28;20511;-84
2021/07/13 05:43:59;;;;;;;23.38;17.65;;;19.90;99.90;;;;;;4956593;28;19907;-83
2021/07/13 05:46:25;;;;;;;23.65;18.27;;;19.90;99.90;;;;;;4958149;28;20028;-83
2021/07/13 05:48:51;;;;;;;22.90;16.42;;;19.90;99.90;;;;;;4957748;28;20527;-83
2021/07/13 05:51:16;;;;;;;21.33;15.82;;;19.90;99.90;;;;;;4956428;29;20027;-83
2021/07/13 05:53:42;;;;;;;19.85;15.20;;;19.90;99.90;;;;;;4957561;28;20034;-84
2021/07/13 05:56:09;;;;;;;20.52;14.95;;;19.90;99.90;;;;;;4967595;28;20043;-83
2021/07/13 05:58:35;;;;;;;22.13;16.85;;;19.90;99.90;;;;;;4976150;28;20023;-84
2021/07/13 06:01:02;;;;;;;20.85;15.55;;;19.90;99.90;;;;;;4958612;28;20384;-83
2021/07/13 06:03:27;;;;;;;18.10;14.27;;;19.80;99.90;;;;;;4953540;28;20035;-82
2021/07/13 06:05:53;;;;;;;15.88;12.82;;;19.90;99.90;;;;;;4955678;28;20034;-82
2021/07/13 06:08:19;;;;;;;16.58;12.95;;;19.90;99.90;;;;;;4956885;29;20043;-82
2021/07/13 06:10:44;;;;;;;15.18;12.32;;;19.80;99.90;;;;;;4955506;28;20445;-84
2021/07/13 06:13:10;;;;;;;14.95;12.23;;;19.80;99.90;;;;;;4958574;28;20031;-84
2021/07/13 06:15:35;;;;;;;16.95;12.98;;;19.80;99.90;;;;;;4958817;28;20055;-84
2021/07/13 06:18:01;;;;;;;16.88;11.98;;;19.80;99.90;;;;;;4957632;28;20051;-83
2021/07/13 06:20:28;;;;;;;14.88;10.82;;;19.80;99.90;;;;;;4957282;28;20403;-84
2021/07/13 06:22:53;;;;;;;15.65;11.18;;;19.70;99.90;;;;;;4957156;29;20429;-84
2021/07/13 06:25:19;;;;;;;14.18;10.77;;;19.80;99.90;;;;;;4956533;29;20067;-84
2021/07/13 06:27:44;;;;;;;16.40;11.07;;;19.80;99.90;;;;;;4952302;29;20058;-84
2021/07/13 06:30:12;;;;;;;13.60;10.05;;;19.80;99.90;;;;;;4953346;29;20132;-84
2021/07/13 06:32:39;;;;;;;14.70;9.75;;;19.80;99.90;;;;;;4957276;28;20023;-85
2021/07/13 06:35:05;;;;;;;13.25;9.70;;;19.90;99.90;;;;;;4956007;28;20174;-85
2021/07/13 06:37:31;;;;;;;15.30;9.07;;;19.90;99.90;;;;;;4953784;28;20050;-84
2021/07/13 06:39:57;;;;;;;12.10;8.52;;;19.90;99.90;;;;;;4954550;28;20031;-84
2021/07/13 06:42:22;;;;;;;14.07;9.80;;;19.90;99.90;;;;;;4957087;29;20019;-84
2021/07/13 06:44:48;;;;;;;13.05;8.95;;;19.90;99.90;;;;;;4962179;28;20027;-84
2021/07/13 06:47:14;;;;;;;13.65;9.50;;;19.90;99.90;;;;;;4959284;28;20026;-83
2021/07/13 06:49:40;;;;;;;14.18;8.80;;;19.90;99.90;;;;;;4958778;28;20046;-84
2021/07/13 06:52:06;;;;;;;17.05;10.00;;;19.90;99.90;;;;;;4962652;29;20073;-84
2021/07/13 06:54:32;;;;;;;20.13;13.05;;;20.00;99.90;;;;;;4960651;29;20034;-86
2021/07/13 06:56:58;;;;;;;19.30;13.75;;;20.00;99.90;;;;;;4968719;28;20032;-86
2021/07/13 06:59:24;;;;;;;17.35;12.50;;;20.00;99.90;;;;;;4992665;23;20077;-86
2021/07/13 07:01:49;;;;;;;20.15;14.07;;;19.90;99.90;;;;;;4990664;28;20038;-87
2021/07/13 07:04:15;;;;;;;19.77;15.05;;;20.00;99.90;;;;;;4990725;28;20026;-83
2021/07/13 07:06:41;;;;;;;20.92;15.38;;;19.90;99.90;;;;;;4991718;28;20081;-85
2021/07/13 07:09:06;;;;;;;23.05;17.13;;;19.90;99.90;;;;;;4989847;28;20026;-84
2021/07/13 07:11:32;;;;;;;18.95;14.25;;;19.90;99.90;;;;;;5006702;28;20386;-83
2021/07/13 07:13:57;;;;;;;18.50;12.90;;;19.90;99.90;;;;;;5006802;28;20022;-84
2021/07/13 07:16:23;;;;;;;24.27;17.42;;;19.90;99.90;;;;;;4990478;28;20072;-84
2021/07/13 07:18:49;;;;;;;24.15;15.70;;;19.90;99.90;;;;;;4989690;28;20027;-83
2021/07/13 07:21:14;;;;;;;19.75;14.38;;;19.90;99.90;;;;;;4990172;28;20117;-84
2021/07/13 07:23:40;;;;;;;21.10;16.08;;;19.90;99.90;;;;;;4990528;28;20387;-83
2021/07/13 07:26:06;;;;;;;19.67;14.35;;;19.90;99.90;;;;;;4991739;28;20030;-83
2021/07/13 07:28:31;;;;;;;20.08;14.80;;;19.90;99.90;;;;;;4991764;28;20081;-84
2021/07/13 07:30:57;;;;;;;25.95;19.92;;;19.90;99.90;;;;;;5006175;28;20041;-84
2021/07/13 07:33:26;;;;;;;26.55;16.98;;;19.90;99.90;;;;;;4982894;28;20195;-83
2021/07/13 07:35:51;;;;;;;21.65;16.75;;;19.90;99.90;;;;;;4989277;28;20037;-84
2021/07/13 07:38:17;;;;;;;27.63;19.63;;;19.90;99.90;;;;;;4990884;28;20031;-83
2021/07/13 07:40:43;;;;;;;27.83;19.88;;;19.90;99.90;;;;;;4989549;28;20022;-83
2021/07/13 07:43:09;;;;;;;25.15;18.33;;;19.90;99.90;;;;;;4991222;28;20029;-83
2021/07/13 07:45:35;;;;;;;29.13;22.23;;;19.90;99.90;;;;;;4990326;28;20387;-84
2021/07/13 07:48:01;;;;;;;31.15;24.02;;;19.80;99.90;;;;;;4990113;28;20058;-83
2021/07/13 07:50:27;;;;;;;26.98;20.10;;;19.90;99.90;;;;;;4990977;28;20023;-83
2021/07/13 07:52:53;;;;;;;32.30;23.45;;;19.90;99.90;;;;;;4989914;28;20109;-83
2021/07/13 07:55:21;;;;;;;31.15;23.27;;;19.80;99.90;;;;;;4989821;28;20455;-83
2021/07/13 07:57:47;;;;;;;27.20;19.80;;;19.80;99.90;;;;;;4989963;28;20749;-82
2021/07/13 08:00:14;;;;;;;27.52;21.67;;;19.80;99.90;;;;;;4988263;28;20542;-88
2021/07/13 08:02:41;;;;;;;29.50;20.85;;;19.80;99.90;;;;;;4989985;28;20407;-87
2021/07/13 08:05:08;;;;;;;31.05;23.17;;;19.80;99.90;;;;;;4989219;28;20434;-87
2021/07/13 08:07:34;;;;;;;31.77;23.55;;;19.90;99.90;;;;;;4991338;28;20019;-87
2021/07/13 08:09:59;;;;;;;31.50;23.40;;;19.90;99.90;;;;;;4991211;28;20402;-87
2021/07/13 08:12:25;;;;;;;31.70;24.33;;;19.90;99.90;;;;;;4991299;28;20026;-87
2021/07/13 08:14:51;;;;;;;30.70;22.38;;;19.90;99.90;;;;;;4990144;28;20080;-86
2021/07/13 08:17:17;;;;;;;25.40;19.27;;;19.90;99.90;;;;;;4989944;28;20395;-83
2021/07/13 08:19:43;;;;;;;24.90;19.77;;;19.90;99.90;;;;;;4990471;28;20065;-83
2021/07/13 08:22:09;;;;;;;25.88;19.70;;;19.90;99.90;;;;;;4990250;28;20054;-84
2021/07/13 08:24:36;;;;;;;30.88;23.23;;;19.90;99.90;;;;;;4989983;28;20026;-84
2021/07/13 08:27:02;;;;;;;33.70;25.83;;;20.00;99.90;;;;;;4991012;28;20026;-85
2021/07/13 08:29:28;;;;;;;29.85;23.38;;;20.00;99.90;;;;;;4990392;28;20483;-85
2021/07/13 08:31:57;;;;;;;30.48;23.38;;;20.00;99.90;;;;;;4993223;28;20113;-83
2021/07/13 08:34:23;;;;;;;;;;;20.10;99.90;;;;;;4978396;28;20090;-83
2021/07/13 08:36:49;;;;;;;35.08;24.58;;;20.00;99.90;;;;;;4973274;28;19953;-85
2021/07/13 08:39:15;;;;;;;35.30;25.48;;;20.10;99.90;;;;;;4972600;28;20442;-85
2021/07/13 08:41:41;;;;;;;29.38;22.95;;;20.10;99.90;;;;;;4973212;28;20042;-85
2021/07/13 08:44:07;;;;;;;33.42;25.25;;;20.10;99.90;;;;;;4973430;28;20026;-85
2021/07/13 08:46:32;;;;;;;39.47;28.00;;;20.10;99.90;;;;;;4974464;28;20069;-85
2021/07/13 08:49:03;;;;;;;37.83;27.17;;;20.10;99.90;;;;;;4972321;28;20050;-86
2021/07/13 08:51:29;;;;;;;32.05;23.67;;;20.10;99.90;;;;;;4988892;28;20114;-86
2021/07/13 08:53:55;;;;;;;38.17;27.83;;;20.10;99.90;;;;;;4973261;28;20058;-85
2021/07/13 08:56:20;;;;;;;38.55;28.73;;;20.10;99.90;;;;;;4973003;28;20027;-86
2021/07/13 08:58:46;;;;;;;45.00;31.35;;;20.20;99.90;;;;;;4972497;28;20387;-85
2021/07/13 09:01:12;;;;;;;40.90;31.25;;;20.10;99.90;;;;;;4973813;28;20031;-85
2021/07/13 09:03:52;;;;;;;41.35;30.38;;;20.10;99.90;;;;;;4989053;28;20065;-85
2021/07/13 09:06:17;;;;;;;49.00;32.20;;;20.10;99.90;;;;;;4972804;28;20022;-85
2021/07/13 09:08:43;;;;;;;47.47;33.83;;;20.20;99.90;;;;;;4972440;28;20034;-85
2021/07/13 09:11:14;;;;;;;44.78;33.65;;;20.20;99.90;;;;;;4973241;28;20434;-85
2021/07/13 09:13:41;;;;;;;46.35;32.58;;;20.10;99.90;;;;;;4972738;28;20034;-86
2021/07/13 09:16:10;;;;;;;42.42;31.17;;;20.10;99.90;;;;;;4972397;28;20117;-85
2021/07/13 09:18:48;;;;;;;45.42;34.42;;;20.10;99.90;;;;;;4973689;28;20026;-85
2021/07/13 09:21:18;;;;;;;43.97;31.63;;;20.10;99.90;;;;;;4988667;28;20030;-84
2021/07/13 09:24:08;;;;;;;43.92;34.10;;;20.10;99.90;;;;;;4972486;28;20023;-85
2021/07/13 09:26:43;;;;;;;46.28;33.75;;;20.20;99.90;;;;;;4991112;28;20026;-85
2021/07/13 09:29:25;;;;;;;44.88;32.80;;;20.10;99.90;;;;;;4991080;28;20049;-85
2021/07/13 09:31:50;;;;;;;40.78;30.17;;;20.20;99.90;;;;;;4991221;28;20109;-85
2021/07/13 09:34:20;;;;;;;41.83;31.77;;;20.20;99.90;;;;;;4991612;28;20117;-86
2021/07/13 09:36:54;;;;;;;38.05;28.20;;;20.10;99.90;;;;;;4992555;28;20090;-86
2021/07/13 09:39:26;;;;;;;39.38;28.58;;;20.10;99.90;;;;;;4983458;28;20077;-84
2021/07/13 09:41:55;;;;;;;41.38;30.35;;;20.10;99.90;;;;;;4972241;28;20666;-87
2021/07/13 09:44:23;;;;;;;40.90;30.73;;;20.20;99.90;;;;;;4971277;28;20027;-87
2021/07/13 09:46:49;;;;;;;43.72;31.27;;;20.20;99.90;;;;;;4971907;28;20109;-86
2021/07/13 09:49:25;;;;;;;34.40;27.48;;;20.20;99.90;;;;;;4972491;28;20081;-86
2021/07/13 09:51:59;;;;;;;34.78;27.98;;;20.20;99.90;;;;;;4973025;28;20774;-86
2021/07/13 09:54:43;;;;;;;41.30;31.20;;;20.20;99.90;;;;;;4971628;28;20027;-86
2021/07/13 09:57:16;;;;;;;;;;;20.20;99.90;;;;;;4971479;28;20027;-86
2021/07/13 09:59:43;;;;;;;;;;;20.20;99.90;;;;;;4969975;28;19918;-87
2021/07/13 10:02:09;;;;;;;;;;;20.20;99.90;;;;;;4970409;28;19964;-85
2021/07/13 10:04:36;;;;;;;;;;;20.30;99.90;;;;;;4971998;28;19917;-85
2021/07/13 10:07:07;;;;;;;;;;;20.30;99.90;;;;;;4970013;28;20057;-87
2021/07/13 10:09:35;;;;;;;;;;;20.30;99.90;;;;;;4971285;28;19910;-86
2021/07/13 10:12:01;;;;;;;;;;;20.30;99.90;;;;;;4969788;28;19997;-86
2021/07/13 10:14:27;;;;;;;;;;;20.30;99.90;;;;;;4978792;28;19918;-85
2021/07/13 10:16:52;;;;;;;;;;;20.30;99.90;;;;;;4971503;28;20550;-86
2021/07/13 10:19:19;;;;;;;;;;;20.40;99.90;;;;;;4970938;28;20005;-85
2021/07/13 10:21:46;;;;;;;;;;;20.40;99.90;;;;;;4971298;28;20012;-85
2021/07/13 10:24:12;;;;;;;;;;;20.40;99.90;;;;;;4991110;28;19933;-85
2021/07/13 10:26:45;;;;;;;;;;;20.40;99.90;;;;;;4987968;28;19910;-85
2021/07/13 10:29:29;;;;;;;;;;;20.40;99.90;;;;;;4978424;28;20374;-85
2021/07/13 10:31:55;;;;;;;;;;;20.40;99.90;;;;;;4970220;28;19964;-84
2021/07/13 10:34:39;;;;;;;;;;;20.50;99.90;;;;;;4970916;28;20508;-85
2021/07/13 10:37:23;;;;;;;;;;;20.50;99.90;;;;;;4971052;28;20447;-85
2021/07/13 10:39:49;;;;;;;;;;;20.50;99.90;;;;;;4971071;28;19910;-85
2021/07/13 10:42:33;;;;;;;;;;;20.60;99.90;;;;;;4969634;28;20234;-85
2021/07/13 10:45:11;;;;;;;;;;;20.60;99.90;;;;;;4971336;28;20485;-85
2021/07/13 10:47:36;;;;;;;;;;;20.60;99.90;;;;;;4972668;28;20399;-85
2021/07/13 10:50:17;;;;;;;;;;;20.70;99.90;;;;;;4970872;28;19948;-85
2021/07/13 10:52:55;;;;;;;;;;;20.70;99.90;;;;;;4970489;28;19910;-85
2021/07/13 10:55:30;;;;;;;;;;;20.70;99.90;;;;;;4971041;28;19918;-86
2021/07/13 10:58:14;;;;;;;;;;;20.80;99.90;;;;;;4969139;28;19910;-85
2021/07/13 11:00:54;;;;;;;;;;;20.80;99.90;;;;;;4969048;28;19918;-85
2021/07/13 11:03:31;;;;;;;;;;;20.80;99.90;;;;;;4969515;28;20339;-85
2021/07/13 11:06:01;;;;;;;;;;;20.80;99.90;;;;;;4971026;28;19918;-85
2021/07/13 11:08:38;;;;;;;;;;;20.80;99.90;;;;;;4969614;28;20044;-85
2021/07/13 11:11:07;;;;;;;;;;;20.80;99.90;;;;;;4970007;28;19910;-85
2021/07/13 11:13:33;;;;;;;;;;;20.80;99.90;;;;;;4969835;28;20740;-85
2021/07/13 11:15:58;;;;;;;;;;;20.90;99.90;;;;;;4968856;28;19930;-85
2021/07/13 11:18:31;;;;;;;;;;;20.90;99.90;;;;;;4970450;28;19911;-85
2021/07/13 11:21:15;;;;;;;;;;;20.90;99.90;;;;;;4969079;28;20339;-85
2021/07/13 11:23:41;;;;;;;;;;;20.90;99.90;;;;;;4970680;28;20343;-85
2021/07/13 11:26:09;;;;;;;;;;;20.90;99.90;;;;;;4969514;28;19918;-86
2021/07/13 11:28:38;;;;;;;;;;;20.90;99.90;;;;;;4969379;28;20053;-85
2021/07/13 11:31:04;;;;;;;;;;;20.90;99.90;;;;;;4969654;28;19918;-84
2021/07/13 11:33:30;;;;;;;;;;;21.00;99.90;;;;;;4989311;28;19920;-85
2021/07/13 11:35:57;;;;;;;;;;;21.00;99.90;;;;;;4988742;28;19914;-85
2021/07/13 11:38:26;;;;;;;;;;;21.00;99.90;;;;;;4988458;28;19997;-84
2021/07/13 11:41:08;;;;;;;;;;;21.00;99.90;;;;;;4988853;28;19910;-84
2021/07/13 11:43:33;;;;;;;;;;;21.10;99.90;;;;;;4990205;28;20200;-84
2021/07/13 11:46:25;;;;;;;;;;;21.00;99.90;;;;;;4990441;28;19917;-84
2021/07/13 11:49:09;;;;;;;;;;;21.10;99.90;;;;;;4988964;28;19993;-85
2021/07/13 11:51:54;;;;;;;;;;;21.10;99.90;;;;;;4990080;28;19910;-84
2021/07/13 11:54:22;;;;;;;;;;;21.20;99.90;;;;;;4990286;28;20030;-85
2021/07/13 11:56:49;;;;;;;;;;;21.20;99.90;;;;;;4990065;28;19913;-85
2021/07/13 11:59:16;;;;;;;;;;;21.20;99.90;;;;;;4989823;28;20339;-84
2021/07/13 12:01:44;;;;;;;;;;;21.20;99.90;;;;;;4975011;28;19920;-84
2021/07/13 12:04:11;;;;;;;;;;;21.20;99.90;;;;;;4973066;28;19910;-82
2021/07/13 12:06:37;;;;;;;;;;;21.20;99.90;;;;;;4975343;28;19910;-84
2021/07/13 12:09:08;;;;;;;;;;;21.20;99.90;;;;;;4974039;28;19910;-84
2021/07/13 12:11:35;;;;;;;;;;;21.30;99.90;;;;;;4973904;28;19910;-84
2021/07/13 12:14:01;;;;;;;;;;;21.30;99.90;;;;;;4974095;28;19914;-84
2021/07/13 12:16:30;;;;;;;;;;;21.30;99.90;;;;;;4973884;28;19914;-83
2021/07/13 12:19:08;;;;;;;;;;;21.40;99.90;;;;;;4973664;28;20303;-84
2021/07/13 12:21:38;;;;;;;;;;;21.50;99.90;;;;;;4975281;28;19968;-85
2021/07/13 12:24:09;;;;;;;;;;;21.50;99.90;;;;;;4973809;28;20515;-86
2021/07/13 12:26:36;;;;;;;;;;;21.60;99.90;;;;;;4973883;28;19910;-86
2021/07/13 12:29:09;;;;;;;;;;;21.60;99.90;;;;;;4970928;28;19918;-86
2021/07/13 12:31:38;;;;;;;;;;;21.50;99.90;;;;;;4994831;28;19972;-85
2021/07/13 12:34:13;;;;;;;;;;;21.60;99.90;;;;;;4988112;28;19916;-84
2021/07/13 12:36:39;;;;;;;;;;;21.60;99.90;;;;;;4973642;28;19944;-84
2021/07/13 12:39:15;;;;;;;;;;;21.60;99.90;;;;;;4974047;28;19914;-85
2021/07/13 12:41:41;;;;;;;;;;;21.70;99.90;;;;;;4973234;28;20286;-84
2021/07/13 12:44:25;;;;;;;;;;;21.80;99.90;;;;;;4974717;28;19910;-84
2021/07/13 12:46:50;;;;;;;;;;;21.80;99.90;;;;;;4973218;28;20045;-84
2021/07/13 12:49:16;;;;;;;;;;;21.80;99.90;;;;;;4973055;28;20009;-84
2021/07/13 12:51:41;;;;;;;;;;;21.90;99.90;;;;;;4974693;28;19910;-84
2021/07/13 12:54:08;;;;;;;;;;;21.90;99.90;;;;;;4974834;28;19917;-84
2021/07/13 12:56:34;;;;;;;;;;;21.90;99.90;;;;;;4974460;28;19940;-84
2021/07/13 12:59:18;;;;;;;;;;;21.90;99.90;;;;;;4973750;28;20001;-84
2021/07/13 13:01:44;;;;;;;;;;;22.00;99.90;;;;;;4974391;28;20004;-84